createdAt,value
2018-04-23T00:00:18.498Z,5.70
2018-04-23T00:02:45.081Z,5.27
2018-04-23T00:05:11.709Z,5.90
2018-04-23T00:07:38.586Z,5.70
2018-04-23T00:10:05.226Z,5.93
2018-04-23T00:12:31.780Z,5.60
2018-04-23T00:14:58.445Z,6.23
2018-04-23T00:17:25.417Z,5.47
2018-04-23T00:19:52.332Z,6.30
2018-04-23T00:22:18.904Z,5.33
2018-04-23T00:24:45.485Z,5.10
2018-04-23T00:27:12.060Z,5.87
2018-04-23T00:29:38.791Z,5.67
2018-04-23T00:32:05.401Z,5.47
2018-04-23T00:34:31.951Z,5.43
2018-04-23T00:36:58.560Z,4.83
2018-04-23T00:39:25.188Z,5.20
2018-04-23T00:41:51.723Z,5.53
2018-04-23T00:44:18.373Z,5.10
2018-04-23T00:46:45.315Z,5.67
2018-04-23T00:49:12.334Z,4.93
2018-04-23T00:51:39.446Z,5.43
2018-04-23T00:54:06.077Z,5.83
2018-04-23T00:56:32.656Z,5.10
2018-04-23T00:58:59.296Z,5.30
2018-04-23T01:01:25.937Z,5.17
2018-04-23T01:03:52.490Z,6.50
2018-04-23T01:06:19.064Z,5.10
2018-04-23T01:08:45.644Z,5.10
2018-04-23T01:11:12.253Z,5.63
2018-04-23T01:13:38.980Z,5.43
2018-04-23T01:16:05.632Z,4.97
2018-04-23T01:18:32.246Z,6.00
2018-04-23T01:20:59.223Z,5.10
2018-04-23T01:23:26.253Z,5.00
2018-04-23T01:25:52.811Z,5.53
2018-04-23T01:28:19.388Z,5.03
2018-04-23T01:30:45.981Z,5.47
2018-04-23T01:33:12.597Z,5.13
2018-04-23T01:35:39.348Z,5.20
2018-04-23T01:38:06.489Z,4.97
2018-04-23T01:40:33.092Z,5.80
2018-04-23T01:42:59.796Z,5.30
2018-04-23T01:45:26.492Z,5.07
2018-04-23T01:47:53.053Z,4.97
2018-04-23T01:50:19.642Z,4.73
2018-04-23T01:52:46.225Z,5.30
2018-04-23T01:55:12.844Z,5.13
2018-04-23T01:57:39.597Z,6.33
2018-04-23T02:00:06.298Z,4.97
2018-04-23T02:02:32.897Z,4.90
2018-04-23T02:04:59.467Z,5.50
2018-04-23T02:07:26.105Z,5.90
2018-04-23T02:09:52.661Z,6.27
2018-04-23T02:12:19.240Z,4.80
2018-04-23T02:14:45.825Z,5.03
2018-04-23T02:17:12.833Z,5.57
2018-04-23T02:19:39.457Z,5.73
2018-04-23T02:22:06.084Z,5.73
2018-04-23T02:24:32.688Z,5.27
2018-04-23T02:26:59.268Z,5.67
2018-04-23T02:29:25.908Z,5.13
2018-04-23T02:31:52.864Z,4.90
2018-04-23T02:34:19.451Z,5.57
2018-04-23T02:36:46.024Z,5.20
2018-04-23T02:39:12.628Z,5.93
2018-04-23T02:41:39.400Z,5.70
2018-04-23T02:44:06.047Z,6.97
2018-04-23T02:46:32.686Z,6.10
2018-04-23T02:48:59.269Z,6.20
2018-04-23T02:51:25.973Z,5.87
2018-04-23T02:53:52.561Z,5.53
2018-04-23T02:56:19.145Z,6.60
2018-04-23T02:58:45.720Z,6.20
2018-04-23T03:01:12.730Z,5.70
2018-04-23T03:03:39.461Z,6.33
2018-04-23T03:06:06.111Z,6.37
2018-04-23T03:08:33.105Z,7.10
2018-04-23T03:10:59.773Z,6.20
2018-04-23T03:13:26.752Z,6.60
2018-04-23T03:15:53.320Z,6.13
2018-04-23T03:18:19.908Z,6.40
2018-04-23T03:20:46.492Z,5.17
2018-04-23T03:23:13.111Z,5.33
2018-04-23T03:25:39.814Z,5.50
2018-04-23T03:28:06.497Z,6.03
2018-04-23T03:30:33.453Z,5.23
2018-04-23T03:33:00.033Z,6.00
2018-04-23T03:38:00.361Z,6.13
2018-04-23T03:40:27.013Z,5.90
2018-04-23T03:42:53.575Z,5.43
2018-04-23T03:45:20.157Z,5.93
2018-04-23T03:47:46.764Z,6.10
2018-04-23T03:50:13.385Z,5.30
2018-04-23T03:52:40.078Z,5.80
2018-04-23T03:55:07.223Z,5.33
2018-04-23T03:57:34.177Z,5.00
2018-04-23T04:00:00.768Z,5.00
2018-04-23T04:02:27.462Z,5.80
2018-04-23T04:04:54.036Z,5.40
2018-04-23T04:07:20.662Z,5.77
2018-04-23T04:09:47.242Z,5.30
2018-04-23T04:15:29.650Z,5.60
2018-04-23T04:21:04.748Z,4.83
2018-04-23T04:23:31.329Z,5.20
2018-04-23T04:25:58.330Z,5.40
2018-04-23T04:28:24.877Z,6.23
2018-04-23T04:30:51.509Z,5.60
2018-04-23T04:33:18.085Z,5.70
2018-04-23T04:35:44.782Z,5.30
2018-04-23T04:38:11.724Z,5.60
2018-04-23T04:40:38.292Z,6.23
2018-04-23T04:43:05.368Z,6.20
2018-04-23T04:45:31.981Z,5.60
2018-04-23T04:47:59.001Z,6.50
2018-04-23T04:50:26.393Z,6.33
2018-04-23T04:52:52.963Z,6.13
2018-04-23T04:55:19.979Z,5.70
2018-04-23T04:57:46.665Z,6.20
2018-04-23T05:00:13.473Z,6.00
2018-04-23T05:02:40.116Z,6.30
2018-04-23T05:05:06.657Z,6.53
2018-04-23T05:07:33.254Z,5.97
2018-04-23T05:10:00.225Z,4.80
2018-04-23T05:12:27.168Z,5.40
2018-04-23T05:14:53.745Z,6.00
2018-04-23T05:17:20.462Z,6.57
2018-04-23T05:19:47.500Z,6.10
2018-04-23T05:22:14.289Z,6.20
2018-04-23T05:24:40.936Z,6.30
2018-04-23T05:27:07.549Z,7.13
2018-04-23T05:29:34.181Z,6.57
2018-04-23T05:32:00.777Z,6.17
2018-04-23T05:34:27.325Z,5.90
2018-04-23T05:36:53.924Z,5.90
2018-04-23T05:39:20.517Z,6.20
2018-04-23T05:41:47.175Z,6.33
2018-04-23T05:44:13.944Z,5.87
2018-04-23T05:46:40.888Z,5.70
2018-04-23T05:49:07.497Z,5.90
2018-04-23T05:51:34.129Z,5.53
2018-04-23T05:54:00.713Z,5.30
2018-04-23T05:56:27.310Z,6.93
2018-04-23T05:58:53.914Z,7.17
2018-04-23T06:01:20.581Z,5.70
2018-04-23T06:03:47.660Z,5.00
2018-04-23T06:06:14.456Z,11.80
2018-04-23T06:08:41.444Z,9.47
2018-04-23T06:11:07.992Z,8.67
2018-04-23T06:13:34.617Z,6.53
2018-04-23T06:16:01.213Z,6.37
2018-04-23T06:18:27.761Z,5.17
2018-04-23T06:20:54.704Z,5.67
2018-04-23T06:23:21.662Z,6.60
2018-04-23T06:25:48.658Z,5.97
2018-04-23T06:28:15.390Z,6.30
2018-04-23T06:30:42.147Z,5.10
2018-04-23T06:33:09.245Z,5.80
2018-04-23T06:35:36.038Z,6.40
2018-04-23T06:38:03.048Z,5.10
2018-04-23T06:40:29.615Z,5.03
2018-04-23T06:42:56.204Z,4.63
2018-04-23T06:45:23.224Z,5.30
2018-04-23T06:47:49.824Z,5.80
2018-04-23T06:50:16.531Z,6.27
2018-04-23T06:52:43.349Z,5.90
2018-04-23T06:55:10.327Z,6.60
2018-04-23T06:57:36.981Z,5.27
2018-04-23T07:00:03.646Z,5.90
2018-04-23T07:02:30.192Z,5.10
2018-04-23T07:04:56.842Z,5.70
2018-04-23T07:07:23.412Z,5.23
2018-04-23T07:09:50.404Z,4.93
2018-04-23T07:12:17.210Z,5.20
2018-04-23T07:14:43.970Z,5.47
2018-04-23T07:17:10.577Z,4.13
2018-04-23T07:19:37.218Z,5.77
2018-04-23T07:22:03.812Z,4.90
2018-04-23T07:24:30.736Z,5.80
2018-04-23T07:26:57.321Z,5.00
2018-04-23T07:29:24.354Z,4.90
2018-04-23T07:31:50.955Z,4.07
2018-04-23T07:34:17.738Z,4.10
2018-04-23T07:36:44.445Z,4.43
2018-04-23T07:39:11.030Z,4.00
2018-04-23T07:41:37.661Z,4.23
2018-04-23T07:44:04.264Z,4.50
2018-04-23T07:46:31.176Z,3.60
2018-04-23T07:48:57.827Z,4.03
2018-04-23T07:51:24.426Z,4.53
2018-04-23T07:53:51.439Z,4.40
2018-04-23T07:56:18.090Z,3.80
2018-04-23T07:58:44.816Z,4.00
2018-04-23T08:01:11.409Z,4.20
2018-04-23T08:03:38.034Z,4.33
2018-04-23T08:06:04.656Z,3.73
2018-04-23T08:08:31.205Z,3.73
2018-04-23T08:10:57.785Z,3.33
2018-04-23T08:13:24.409Z,3.83
2018-04-23T08:15:51.016Z,4.67
2018-04-23T08:18:17.717Z,3.23
2018-04-23T08:20:44.502Z,3.40
2018-04-23T08:23:11.166Z,3.60
2018-04-23T08:25:37.777Z,4.10
2018-04-23T08:28:04.417Z,3.80
2018-04-23T08:30:30.952Z,4.37
2018-04-23T08:32:57.529Z,3.47
2018-04-23T08:35:24.127Z,4.13
2018-04-23T08:37:50.720Z,3.30
2018-04-23T08:40:17.346Z,3.40
2018-04-23T08:42:44.092Z,3.30
2018-04-23T08:45:10.708Z,3.83
2018-04-23T08:47:37.276Z,3.90
2018-04-23T08:50:03.926Z,3.30
2018-04-23T08:52:30.470Z,3.73
2018-04-23T08:54:57.479Z,3.13
2018-04-23T08:57:24.066Z,4.80
2018-04-23T08:59:51.054Z,3.40
2018-04-23T09:02:17.700Z,4.00
2018-04-23T09:04:44.388Z,4.30
2018-04-23T09:07:10.936Z,3.27
2018-04-23T09:09:37.586Z,3.70
2018-04-23T09:12:04.197Z,3.37
2018-04-23T09:14:30.744Z,3.73
2018-04-23T09:16:57.326Z,3.13
2018-04-23T09:19:23.947Z,3.30
2018-04-23T09:21:50.593Z,3.63
2018-04-23T09:24:17.307Z,3.17
2018-04-23T09:26:44.440Z,2.80
2018-04-23T09:29:11.095Z,3.23
2018-04-23T09:31:37.745Z,3.70
2018-04-23T09:34:04.336Z,4.20
2018-04-23T09:36:30.950Z,4.30
2018-04-23T09:38:57.550Z,3.77
2018-04-23T09:41:24.143Z,4.00
2018-04-23T09:43:50.788Z,3.47
2018-04-23T09:46:17.428Z,3.40
2018-04-23T09:48:44.379Z,4.03
2018-04-23T09:51:11.376Z,3.73
2018-04-23T09:53:38.394Z,4.27
2018-04-23T09:56:05.002Z,4.20
2018-04-23T09:58:31.573Z,4.57
2018-04-23T10:00:58.211Z,4.40
2018-04-23T10:03:24.808Z,4.07
2018-04-23T10:05:51.453Z,2.80
2018-04-23T10:08:18.226Z,3.80
2018-04-23T10:10:45.386Z,4.70
2018-04-23T10:13:12.095Z,3.50
2018-04-23T10:15:39.164Z,3.83
2018-04-23T10:18:05.776Z,3.80
2018-04-23T10:20:32.312Z,3.83
2018-04-23T10:22:58.906Z,3.50
2018-04-23T10:25:25.484Z,4.20
2018-04-23T10:27:52.096Z,4.23
2018-04-23T10:30:18.739Z,4.13
2018-04-23T10:32:45.442Z,3.80
2018-04-23T10:35:12.381Z,3.90
2018-04-23T10:37:39.395Z,4.20
2018-04-23T10:40:05.985Z,4.00
2018-04-23T10:42:32.530Z,3.70
2018-04-23T10:44:59.109Z,3.87
2018-04-23T10:47:25.722Z,3.90
2018-04-23T10:49:52.331Z,4.03
2018-04-23T10:52:18.924Z,3.80
2018-04-23T10:54:45.687Z,4.73
2018-04-23T10:57:12.377Z,3.70
2018-04-23T10:59:39.012Z,3.73
2018-04-23T11:02:05.655Z,3.80
2018-04-23T11:04:32.593Z,3.80
2018-04-23T11:06:59.553Z,4.20
2018-04-23T11:09:26.517Z,3.80
2018-04-23T11:11:53.433Z,3.00
2018-04-23T11:14:20.043Z,4.10
2018-04-23T11:16:46.673Z,3.13
2018-04-23T11:19:13.325Z,4.07
2018-04-23T11:21:39.935Z,3.00
2018-04-23T11:24:06.524Z,3.93
2018-04-23T11:26:34.090Z,4.43
2018-04-23T11:29:00.701Z,4.17
2018-04-23T11:31:27.285Z,3.63
2018-04-23T11:33:54.217Z,4.23
2018-04-23T11:36:20.851Z,4.17
2018-04-23T11:38:47.546Z,3.80
2018-04-23T11:41:14.195Z,3.53
2018-04-23T11:43:40.804Z,4.13
2018-04-23T11:46:07.420Z,4.63
2018-04-23T11:48:33.984Z,4.03
2018-04-23T11:51:00.653Z,4.90
2018-04-23T11:53:27.244Z,3.80
2018-04-23T11:55:53.801Z,3.80
2018-04-23T11:58:20.417Z,4.70
2018-04-23T12:00:47.441Z,4.20
2018-04-23T12:03:14.084Z,4.13
2018-04-23T12:05:40.693Z,4.07
2018-04-23T12:08:07.368Z,3.63
2018-04-23T12:10:33.929Z,3.70
2018-04-23T12:13:00.538Z,4.80
2018-04-23T12:15:27.484Z,4.77
2018-04-23T12:17:54.444Z,4.63
2018-04-23T12:20:21.455Z,5.10
2018-04-23T12:22:48.069Z,4.97
2018-04-23T12:25:14.690Z,4.60
2018-04-23T12:27:41.293Z,5.53
2018-04-23T12:30:07.940Z,4.80
2018-04-23T12:32:34.591Z,4.67
2018-04-23T12:35:01.202Z,4.37
2018-04-23T12:37:27.797Z,5.10
2018-04-23T12:39:54.628Z,5.53
2018-04-23T12:42:21.277Z,5.13
2018-04-23T12:44:47.889Z,5.00
2018-04-23T12:47:14.880Z,5.83
2018-04-23T12:49:41.489Z,4.40
2018-04-23T12:52:08.164Z,6.70
2018-04-23T12:54:34.722Z,5.80
2018-04-23T12:57:01.317Z,4.93
2018-04-23T12:59:27.951Z,4.90
2018-04-23T13:01:54.510Z,4.50
2018-04-23T13:04:21.245Z,5.10
2018-04-23T13:06:47.871Z,4.63
2018-04-23T13:09:14.597Z,5.00
2018-04-23T13:11:41.352Z,5.50
2018-04-23T13:14:08.436Z,5.70
2018-04-23T13:16:35.079Z,5.57
2018-04-23T13:19:01.669Z,4.40
2018-04-23T13:21:28.449Z,4.60
2018-04-23T13:23:55.804Z,4.50
2018-04-23T13:26:22.898Z,5.90
2018-04-23T13:28:49.552Z,4.27
2018-04-23T13:31:16.141Z,5.40
2018-04-23T13:33:43.022Z,6.27
2018-04-23T13:36:09.809Z,5.40
2018-04-23T13:38:36.378Z,4.90
2018-04-23T13:41:03.148Z,5.20
2018-04-23T13:43:29.748Z,5.23
2018-04-23T13:45:56.284Z,5.37
2018-04-23T13:48:23.246Z,6.87
2018-04-23T13:50:49.971Z,5.73
2018-04-23T13:53:16.946Z,5.40
2018-04-23T13:55:43.774Z,6.90
2018-04-23T13:58:10.748Z,5.93
2018-04-23T14:00:37.705Z,7.10
2018-04-23T14:03:04.674Z,5.40
2018-04-23T14:05:31.621Z,6.77
2018-04-23T14:07:58.166Z,7.97
2018-04-23T14:10:25.127Z,7.00
2018-04-23T14:12:52.120Z,6.90
2018-04-23T14:15:18.693Z,6.33
2018-04-23T14:17:45.637Z,6.53
2018-04-23T14:20:12.219Z,7.80
2018-04-23T14:22:38.863Z,7.40
2018-04-23T14:25:05.468Z,9.40
2018-04-23T14:27:32.048Z,7.77
2018-04-23T14:29:58.604Z,7.40
2018-04-23T14:32:25.241Z,8.90
2018-04-23T14:34:51.914Z,8.40
2018-04-23T14:37:18.499Z,8.50
2018-04-23T14:39:45.204Z,7.77
2018-04-23T14:42:11.853Z,7.23
2018-04-23T14:44:38.870Z,7.47
2018-04-23T14:47:05.459Z,7.30
2018-04-23T14:49:32.037Z,7.73
2018-04-23T14:51:58.995Z,6.10
2018-04-23T14:54:25.977Z,7.30
2018-04-23T14:56:52.668Z,6.70
2018-04-23T14:59:19.713Z,6.83
2018-04-23T15:01:46.383Z,6.40
2018-04-23T15:04:13.072Z,7.70
2018-04-23T15:06:39.677Z,6.00
2018-04-23T15:09:06.288Z,6.47
2018-04-23T15:11:32.996Z,6.17
2018-04-23T15:13:59.917Z,5.23
2018-04-23T15:16:26.509Z,7.23
2018-04-23T15:18:53.537Z,4.63
2018-04-23T15:21:20.175Z,4.00
2018-04-23T15:23:46.858Z,4.40
2018-04-23T15:26:13.554Z,3.50
2018-04-23T15:28:40.208Z,4.50
2018-04-23T15:31:06.897Z,3.57
2018-04-23T15:33:33.873Z,4.63
2018-04-23T15:36:00.841Z,4.43
2018-04-23T15:38:27.796Z,3.93
2018-04-23T15:40:54.733Z,4.53
2018-04-23T15:43:21.337Z,3.33
2018-04-23T15:45:48.049Z,4.77
2018-04-23T15:48:14.789Z,4.90
2018-04-23T15:50:41.377Z,4.63
2018-04-23T15:53:08.172Z,3.70
2018-04-23T15:55:34.761Z,4.23
2018-04-23T15:58:01.304Z,4.10
2018-04-23T16:00:27.880Z,3.50
2018-04-23T16:02:54.471Z,3.43
2018-04-23T16:05:21.075Z,3.77
2018-04-23T16:07:47.705Z,3.60
2018-04-23T16:10:14.368Z,4.00
2018-04-23T16:12:41.362Z,3.43
2018-04-23T16:15:08.031Z,4.80
2018-04-23T16:17:34.641Z,4.50
2018-04-23T16:20:01.229Z,4.57
2018-04-23T16:22:28.198Z,4.20
2018-04-23T16:24:55.157Z,3.30
2018-04-23T16:27:22.095Z,4.80
2018-04-23T16:29:49.088Z,3.20
2018-04-23T16:32:15.804Z,5.00
2018-04-23T16:34:42.517Z,3.90
2018-04-23T16:37:09.596Z,4.03
2018-04-23T16:39:36.250Z,4.20
2018-04-23T16:42:02.825Z,5.30
2018-04-23T16:44:29.768Z,3.90
2018-04-23T16:46:56.434Z,3.40
2018-04-23T16:49:23.389Z,3.90
2018-04-23T16:51:50.484Z,4.50
2018-04-23T16:54:17.275Z,4.17
2018-04-23T16:56:44.327Z,4.40
2018-04-23T16:59:11.317Z,4.97
2018-04-23T17:01:38.370Z,4.70
2018-04-23T17:04:05.316Z,3.50
2018-04-23T17:06:31.888Z,3.93
2018-04-23T17:08:58.840Z,3.50
2018-04-23T17:11:25.777Z,3.57
2018-04-23T17:13:52.552Z,4.60
2018-04-23T17:16:19.251Z,3.77
2018-04-23T17:18:45.966Z,3.60
2018-04-23T17:21:12.969Z,3.63
2018-04-23T17:23:39.596Z,4.30
2018-04-23T17:26:06.150Z,3.77
2018-04-23T17:28:32.733Z,4.20
2018-04-23T17:30:59.326Z,4.27
2018-04-23T17:33:25.893Z,4.03
2018-04-23T17:35:52.558Z,4.03
2018-04-23T17:38:19.251Z,3.50
2018-04-23T17:40:46.066Z,4.40
2018-04-23T17:43:12.736Z,3.93
2018-04-23T17:45:39.403Z,4.93
2018-04-23T17:48:06.389Z,3.40
2018-04-23T17:50:32.968Z,3.87
2018-04-23T17:52:59.593Z,3.50
2018-04-23T17:55:26.140Z,3.00
2018-04-23T17:57:52.794Z,3.60
2018-04-23T18:00:19.437Z,4.70
2018-04-23T18:02:46.103Z,3.83
2018-04-23T18:05:12.873Z,4.47
2018-04-23T18:07:39.464Z,3.67
2018-04-23T18:10:06.120Z,3.97
2018-04-23T18:12:32.766Z,3.50
2018-04-23T18:14:59.716Z,4.37
2018-04-23T18:17:26.644Z,4.70
2018-04-23T18:19:53.352Z,4.57
2018-04-23T18:22:19.991Z,4.53
2018-04-23T18:24:46.721Z,3.87
2018-04-23T18:27:13.460Z,4.20
2018-04-23T18:29:40.084Z,4.30
2018-04-23T18:32:06.725Z,5.00
2018-04-23T18:34:33.334Z,3.87
2018-04-23T18:36:59.921Z,4.50
2018-04-23T18:39:26.537Z,3.60
2018-04-23T18:41:53.209Z,4.87
2018-04-23T18:44:26.821Z,6.20
2018-04-23T18:46:53.428Z,4.43
2018-04-23T18:49:20.417Z,4.13
2018-04-23T18:51:47.274Z,4.30
2018-04-23T18:54:13.946Z,3.50
2018-04-23T18:56:40.540Z,3.80
2018-04-23T18:59:07.538Z,6.10
2018-04-23T19:01:34.124Z,3.70
2018-04-23T19:04:01.473Z,3.93
2018-04-23T19:06:28.040Z,3.83
2018-04-23T19:08:54.628Z,5.00
2018-04-23T19:11:21.265Z,3.60
2018-04-23T19:13:47.884Z,4.03
2018-04-23T19:16:14.935Z,4.30
2018-04-23T19:18:41.573Z,4.97
2018-04-23T19:21:08.174Z,4.20
2018-04-23T19:23:34.779Z,4.27
2018-04-23T19:26:01.759Z,3.97
2018-04-23T19:28:28.685Z,4.80
2018-04-23T19:30:55.281Z,5.40
2018-04-23T19:33:21.887Z,4.60
2018-04-23T19:35:48.522Z,4.13
2018-04-23T19:38:15.121Z,5.20
2018-04-23T19:40:41.708Z,5.07
2018-04-23T19:43:08.297Z,4.37
2018-04-23T19:45:34.952Z,5.07
2018-04-23T19:48:01.914Z,5.00
2018-04-23T19:50:28.889Z,5.10
2018-04-23T19:52:55.544Z,5.13
2018-04-23T19:55:22.167Z,5.90
2018-04-23T19:57:49.183Z,4.97
2018-04-23T20:00:16.122Z,3.93
2018-04-23T20:02:42.854Z,5.00
2018-04-23T20:05:09.479Z,5.87
2018-04-23T20:07:36.521Z,5.40
2018-04-23T20:10:03.528Z,5.50
2018-04-23T20:12:30.132Z,4.80
2018-04-23T20:14:56.724Z,5.27
2018-04-23T20:17:23.374Z,4.63
2018-04-23T20:19:49.933Z,4.50
2018-04-23T20:22:16.570Z,4.30
2018-04-23T20:24:43.208Z,6.17
2018-04-23T20:27:09.784Z,5.03
2018-04-23T20:29:36.396Z,4.60
2018-04-23T20:32:03.550Z,4.40
2018-04-23T20:34:30.194Z,4.63
2018-04-23T20:36:57.153Z,5.60
2018-04-23T20:39:24.109Z,4.90
2018-04-23T20:41:51.096Z,4.50
2018-04-23T20:44:17.740Z,4.73
2018-04-23T20:46:44.438Z,5.17
2018-04-23T20:49:11.017Z,6.57
2018-04-23T20:51:37.993Z,6.03
2018-04-23T20:54:04.657Z,5.00
2018-04-23T20:56:31.259Z,5.37
2018-04-23T20:58:58.228Z,5.60
2018-04-23T21:01:25.271Z,5.50
2018-04-23T21:03:51.845Z,5.07
2018-04-23T21:06:18.482Z,5.90
2018-04-23T21:08:45.517Z,5.17
2018-04-23T21:11:12.486Z,4.90
2018-04-23T21:13:39.099Z,6.03
2018-04-23T21:16:05.709Z,5.20
2018-04-23T21:18:32.281Z,5.40
2018-04-23T21:20:58.872Z,5.97
2018-04-23T21:23:25.444Z,6.03
2018-04-23T21:25:52.403Z,5.47
2018-04-23T21:28:19.447Z,5.90
2018-04-23T21:30:46.470Z,4.47
2018-04-23T21:33:13.182Z,5.03
2018-04-23T21:35:39.845Z,4.37
2018-04-23T21:38:06.426Z,5.00
2018-04-23T21:40:32.989Z,4.00
2018-04-23T21:42:59.574Z,4.20
2018-04-23T21:45:26.513Z,3.70
2018-04-23T21:47:53.057Z,4.03
2018-04-23T21:50:20.028Z,3.50
2018-04-23T21:52:46.777Z,3.90
2018-04-23T21:55:13.425Z,3.23
2018-04-23T21:57:40.016Z,3.50
2018-04-23T22:00:13.727Z,3.80
2018-04-23T22:02:40.377Z,4.00
2018-04-23T22:05:06.957Z,3.73
2018-04-23T22:07:33.553Z,3.90
2018-04-23T22:10:00.148Z,3.77
2018-04-23T22:12:26.715Z,3.90
2018-04-23T22:14:53.294Z,3.60
2018-04-23T22:17:19.984Z,4.30
2018-04-23T22:19:46.667Z,5.17
2018-04-23T22:22:13.380Z,5.03
2018-04-23T22:24:39.988Z,4.57
2018-04-23T22:27:06.568Z,4.40
2018-04-23T22:29:33.168Z,5.27
2018-04-23T22:31:59.765Z,4.90
2018-04-23T22:34:26.353Z,4.97
2018-04-23T22:36:52.901Z,4.83
2018-04-23T22:39:19.481Z,5.33
2018-04-23T22:41:46.069Z,5.27
2018-04-23T22:44:12.677Z,5.50
2018-04-23T22:46:39.336Z,5.23
2018-04-23T22:49:05.930Z,5.90
2018-04-23T22:51:32.480Z,5.90
2018-04-23T22:53:59.135Z,5.23
2018-04-23T22:56:26.112Z,6.00
2018-04-23T22:58:53.033Z,7.60
2018-04-23T23:01:19.621Z,7.93
2018-04-23T23:03:46.573Z,5.63
2018-04-23T23:06:13.542Z,5.60
2018-04-23T23:08:40.247Z,6.33
2018-04-23T23:11:07.252Z,5.60
2018-04-23T23:13:33.832Z,5.50
2018-04-23T23:16:00.511Z,5.87
2018-04-23T23:18:27.129Z,5.70
2018-04-23T23:20:53.697Z,5.90
2018-04-23T23:23:20.281Z,5.73
2018-04-23T23:25:46.866Z,6.17
2018-04-23T23:28:13.460Z,5.90
2018-04-23T23:30:40.535Z,6.07
2018-04-23T23:33:07.145Z,5.73
2018-04-23T23:35:34.604Z,5.50
2018-04-23T23:38:01.182Z,4.97
2018-04-23T23:40:28.206Z,4.90
2018-04-23T23:42:54.780Z,5.50
2018-04-23T23:45:21.364Z,5.57
2018-04-23T23:47:48.299Z,4.53
2018-04-23T23:50:14.909Z,4.70
2018-04-23T23:52:41.688Z,5.23
2018-04-23T23:55:08.459Z,4.73
2018-04-23T23:57:35.032Z,5.10
